This is the latest recevied weather packets stored in our database for station/object MB7UWV-13. If no packets are shown the sender has not sent any weather packets the latest 1 day(s).
| Time | Temp. | Humidity | Pressure | Rain* | Wind** | Luminosity | Snow |
|---|---|---|---|---|---|---|---|
| 1778060005 | 11.11° C | 56% | 1003.4 hPa | 0 mm | 0.89 m/s, 305° | - | - |
| 1778059105 | 10.56° C | 59% | 1003 hPa | 0 mm | 0.89 m/s, 99° | - | - |
| 1778058205 | 10.56° C | 58% | 1003.4 hPa | 0 mm | 0 m/s | - | - |
| 1778057305 | 10° C | 60% | 1003.4 hPa | 0 mm | 0.45 m/s, 43° | - | - |
| 1778056404 | 9.44° C | 64% | 1003.4 hPa | 0 mm | 0 m/s | - | - |
| 1778055505 | 8.89° C | 65% | 1003.4 hPa | 0 mm | 0.89 m/s, 285° | - | - |
| 1778054606 | 8.33° C | 68% | 1003.4 hPa | 0 mm | 0.45 m/s, 144° | - | - |
| 1778053706 | 8.33° C | 66% | 1003.4 hPa | 0 mm | 0 m/s | - | - |
| 1778052805 | 8.33° C | 67% | 1003.4 hPa | 0 mm | 0.45 m/s, 299° | - | - |
| 1778051905 | 7.22° C | 70% | 1003.4 hPa | 0 mm | 0 m/s | - | - |
| 1778051005 | 6.67° C | 71% | 1003.4 hPa | 0 mm | 0 m/s | - | - |
| 1778050105 | 6.67° C | 70% | 1003.4 hPa | 0 mm | 0.45 m/s, 353° | - | - |
| 1778049205 | 6.11° C | 72% | 1003.4 hPa | 0 mm | 0 m/s | - | - |
| 1778048305 | 5.56° C | 72% | 1003.4 hPa | 0 mm | 0.45 m/s, 318° | - | - |
| 1778047405 | 5.56° C | 72% | 1003 hPa | 0 mm | 0 m/s | - | - |
| 1778046505 | 5.56° C | 73% | 1003.4 hPa | 0 mm | 0 m/s | - | - |
| 1778045605 | 5° C | 74% | 1003 hPa | 0 mm | 0 m/s | - | - |
| 1778044708 | 4.44° C | 75% | 1003 hPa | 0 mm | 0 m/s | - | - |
| 1778043805 | 4.44° C | 75% | 1003.4 hPa | 0 mm | 0 m/s | - | - |
| 1778042905 | 3.89° C | 77% | 1003.4 hPa | 0 mm | 0 m/s | - | - |
| 1778042006 | 3.33° C | 79% | 1003.4 hPa | 0 mm | 0.45 m/s, 320° | - | - |
| 1778041106 | 3.33° C | 81% | 1003 hPa | 0 mm | 0.45 m/s, 348° | - | - |
| 1778040206 | 3.33° C | 82% | 1003 hPa | 0 mm | 0 m/s | - | - |
| 1778039306 | 3.33° C | 82% | 1003.4 hPa | 0 mm | 0 m/s | - | - |
| 1778038408 | 3.33° C | 81% | 1003 hPa | 0 mm | 0 m/s | - | - |
* Rain latest hour (hover to see other rain measurements)
** Current wind speed in m/s (hover to see current wind gust speed)